sensor_id;sensor_type;location;lat;lon;timestamp;pressure;altitude;pressure_sealevel;temperature;humidity
44872;BME280;30602;51.060;17.226;2023-07-29T00:02:20;100877.67;;;16.66;100.00
44872;BME280;30602;51.060;17.226;2023-07-29T00:06:18;100880.91;;;16.69;100.00
44872;BME280;30602;51.060;17.226;2023-07-29T00:10:05;100874.09;;;16.64;100.00
44872;BME280;30602;51.060;17.226;2023-07-29T00:13:30;100875.34;;;16.60;100.00
44872;BME280;30602;51.060;17.226;2023-07-29T00:17:16;100872.02;;;16.56;100.00
44872;BME280;30602;51.060;17.226;2023-07-29T00:20:44;100873.23;;;16.49;100.00
44872;BME280;30602;51.060;17.226;2023-07-29T00:24:28;100870.38;;;16.41;100.00
44872;BME280;30602;51.060;17.226;2023-07-29T00:28:14;100874.81;;;16.25;100.00
44872;BME280;30602;51.060;17.226;2023-07-29T00:32:12;100875.11;;;16.07;100.00
44872;BME280;30602;51.060;17.226;2023-07-29T00:35:56;100875.38;;;16.03;100.00
44872;BME280;30602;51.060;17.226;2023-07-29T00:39:44;100880.23;;;16.06;100.00
44872;BME280;30602;51.060;17.226;2023-07-29T00:43:25;100879.43;;;15.96;100.00
44872;BME280;30602;51.060;17.226;2023-07-29T00:47:16;100881.63;;;15.85;100.00
44872;BME280;30602;51.060;17.226;2023-07-29T00:50:44;100884.07;;;15.77;100.00
44872;BME280;30602;51.060;17.226;2023-07-29T00:54:27;100887.77;;;15.85;100.00
44872;BME280;30602;51.060;17.226;2023-07-29T00:58:14;100886.78;;;15.84;100.00
44872;BME280;30602;51.060;17.226;2023-07-29T01:18:22;100881.91;;;15.77;100.00
44872;BME280;30602;51.060;17.226;2023-07-29T01:21:52;100882.79;;;15.70;100.00
44872;BME280;30602;51.060;17.226;2023-07-29T01:25:26;100881.07;;;15.46;100.00
44872;BME280;30602;51.060;17.226;2023-07-29T01:29:03;100885.13;;;15.34;100.00
44872;BME280;30602;51.060;17.226;2023-07-29T01:41:03;100888.53;;;15.14;100.00
44872;BME280;30602;51.060;17.226;2023-07-29T01:44:33;100887.48;;;15.02;100.00
44872;BME280;30602;51.060;17.226;2023-07-29T01:47:57;100889.51;;;14.99;100.00
44872;BME280;30602;51.060;17.226;2023-07-29T01:51:24;100887.01;;;14.98;100.00
44872;BME280;30602;51.060;17.226;2023-07-29T01:55:31;100884.83;;;14.98;100.00
44872;BME280;30602;51.060;17.226;2023-07-29T01:58:54;100896.30;;;14.96;100.00
44872;BME280;30602;51.060;17.226;2023-07-29T02:02:46;100893.91;;;14.78;100.00
44872;BME280;30602;51.060;17.226;2023-07-29T02:07:10;100905.07;;;14.69;100.00
44872;BME280;30602;51.060;17.226;2023-07-29T02:10:56;100901.87;;;14.67;100.00
44872;BME280;30602;51.060;17.226;2023-07-29T02:15:14;100895.05;;;14.71;100.00
44872;BME280;30602;51.060;17.226;2023-07-29T02:19:00;100895.07;;;14.86;100.00
44872;BME280;30602;51.060;17.226;2023-07-29T02:23:15;100890.05;;;14.83;100.00
44872;BME280;30602;51.060;17.226;2023-07-29T02:27:11;100884.04;;;14.75;100.00
44872;BME280;30602;51.060;17.226;2023-07-29T02:30:41;100884.22;;;14.73;100.00
44872;BME280;30602;51.060;17.226;2023-07-29T02:34:22;100878.56;;;14.65;100.00
44872;BME280;30602;51.060;17.226;2023-07-29T02:37:42;100880.06;;;14.63;100.00
44872;BME280;30602;51.060;17.226;2023-07-29T02:41:38;100880.87;;;14.58;100.00
44872;BME280;30602;51.060;17.226;2023-07-29T02:46:05;100879.35;;;14.55;100.00
44872;BME280;30602;51.060;17.226;2023-07-29T02:50:34;100878.76;;;14.42;100.00
44872;BME280;30602;51.060;17.226;2023-07-29T02:54:18;100879.91;;;14.40;100.00
44872;BME280;30602;51.060;17.226;2023-07-29T02:57:59;100878.75;;;14.35;100.00
44872;BME280;30602;51.060;17.226;2023-07-29T03:01:28;100881.51;;;14.33;100.00
44872;BME280;30602;51.060;17.226;2023-07-29T03:04:49;100879.66;;;14.31;100.00
44872;BME280;30602;51.060;17.226;2023-07-29T03:09:00;100883.84;;;14.31;100.00
44872;BME280;30602;51.060;17.226;2023-07-29T03:12:47;100885.29;;;14.38;100.00
44872;BME280;30602;51.060;17.226;2023-07-29T03:20:34;100890.01;;;14.36;100.00
44872;BME280;30602;51.060;17.226;2023-07-29T03:24:44;100899.78;;;14.24;100.00
44872;BME280;30602;51.060;17.226;2023-07-29T03:29:06;100904.59;;;14.50;100.00
44872;BME280;30602;51.060;17.226;2023-07-29T03:32:35;100902.33;;;14.39;100.00
44872;BME280;30602;51.060;17.226;2023-07-29T03:36:16;100903.93;;;14.37;100.00
44872;BME280;30602;51.060;17.226;2023-07-29T03:39:42;100903.64;;;14.44;100.00
44872;BME280;30602;51.060;17.226;2023-07-29T03:43:16;100901.24;;;14.39;100.00
44872;BME280;30602;51.060;17.226;2023-07-29T03:47:39;100905.69;;;14.53;100.00
44872;BME280;30602;51.060;17.226;2023-07-29T03:51:22;100850.84;;;14.32;100.00
44872;BME280;30602;51.060;17.226;2023-07-29T03:56:01;100895.34;;;14.66;100.00
44872;BME280;30602;51.060;17.226;2023-07-29T04:00:17;100895.41;;;14.82;100.00
44872;BME280;30602;51.060;17.226;2023-07-29T04:04:03;100907.51;;;14.98;100.00
44872;BME280;30602;51.060;17.226;2023-07-29T04:08:03;100882.20;;;14.86;100.00
44872;BME280;30602;51.060;17.226;2023-07-29T04:12:00;100911.80;;;15.13;100.00
44872;BME280;30602;51.060;17.226;2023-07-29T04:15:58;100917.70;;;15.23;100.00
44872;BME280;30602;51.060;17.226;2023-07-29T04:20:17;100914.52;;;15.31;100.00
44872;BME280;30602;51.060;17.226;2023-07-29T04:24:11;100914.69;;;15.52;100.00
44872;BME280;30602;51.060;17.226;2023-07-29T04:27:47;100919.41;;;15.67;100.00
44872;BME280;30602;51.060;17.226;2023-07-29T04:31:17;100911.15;;;15.74;100.00
44872;BME280;30602;51.060;17.226;2023-07-29T04:35:12;100910.43;;;15.86;100.00
44872;BME280;30602;51.060;17.226;2023-07-29T04:38:41;100910.26;;;16.04;100.00
44872;BME280;30602;51.060;17.226;2023-07-29T04:42:40;100908.91;;;16.27;100.00
44872;BME280;30602;51.060;17.226;2023-07-29T04:46:37;100912.25;;;16.53;100.00
44872;BME280;30602;51.060;17.226;2023-07-29T04:50:13;100908.81;;;16.76;100.00
44872;BME280;30602;51.060;17.226;2023-07-29T04:53:51;100910.40;;;16.88;100.00
44872;BME280;30602;51.060;17.226;2023-07-29T04:58:11;100910.80;;;16.98;100.00
44872;BME280;30602;51.060;17.226;2023-07-29T05:02:12;100908.53;;;17.07;100.00
44872;BME280;30602;51.060;17.226;2023-07-29T05:05:45;100903.84;;;17.24;100.00
44872;BME280;30602;51.060;17.226;2023-07-29T05:09:25;100907.06;;;17.45;100.00
44872;BME280;30602;51.060;17.226;2023-07-29T05:13:03;100906.77;;;17.56;100.00
44872;BME280;30602;51.060;17.226;2023-07-29T05:17:08;100905.73;;;17.61;100.00
44872;BME280;30602;51.060;17.226;2023-07-29T05:20:44;100915.48;;;17.61;100.00
44872;BME280;30602;51.060;17.226;2023-07-29T05:27:57;100914.04;;;17.72;100.00
44872;BME280;30602;51.060;17.226;2023-07-29T05:32:05;100914.27;;;17.92;100.00
44872;BME280;30602;51.060;17.226;2023-07-29T05:35:46;100919.00;;;18.16;100.00
44872;BME280;30602;51.060;17.226;2023-07-29T05:39:46;100919.78;;;18.43;100.00
44872;BME280;30602;51.060;17.226;2023-07-29T05:43:14;100925.33;;;18.69;100.00
44872;BME280;30602;51.060;17.226;2023-07-29T05:51:04;100915.23;;;19.05;99.89
44872;BME280;30602;51.060;17.226;2023-07-29T05:54:50;100918.87;;;19.25;97.70
44872;BME280;30602;51.060;17.226;2023-07-29T05:58:33;100924.60;;;19.44;97.18
44872;BME280;30602;51.060;17.226;2023-07-29T06:02:16;100920.70;;;19.55;98.23
44872;BME280;30602;51.060;17.226;2023-07-29T06:09:34;100920.57;;;19.89;95.15
44872;BME280;30602;51.060;17.226;2023-07-29T06:13:20;100919.07;;;19.99;95.95
44872;BME280;30602;51.060;17.226;2023-07-29T06:17:38;100912.22;;;20.22;94.65
44872;BME280;30602;51.060;17.226;2023-07-29T06:21:23;100912.36;;;20.32;93.21
44872;BME280;30602;51.060;17.226;2023-07-29T06:25:36;100917.16;;;20.63;93.18
44872;BME280;30602;51.060;17.226;2023-07-29T06:29:28;100920.19;;;20.80;92.06
44872;BME280;30602;51.060;17.226;2023-07-29T06:33:19;100916.34;;;21.06;92.57
44872;BME280;30602;51.060;17.226;2023-07-29T06:36:59;100918.35;;;21.25;90.70
44872;BME280;30602;51.060;17.226;2023-07-29T06:40:51;100923.80;;;21.36;89.32
44872;BME280;30602;51.060;17.226;2023-07-29T06:44:36;100924.83;;;21.57;89.07
44872;BME280;30602;51.060;17.226;2023-07-29T06:47:59;100925.13;;;21.78;87.18
44872;BME280;30602;51.060;17.226;2023-07-29T06:51:59;100924.70;;;21.84;85.64
44872;BME280;30602;51.060;17.226;2023-07-29T06:55:53;100910.34;;;22.25;84.63
44872;BME280;30602;51.060;17.226;2023-07-29T06:59:35;100906.36;;;22.45;84.20
44872;BME280;30602;51.060;17.226;2023-07-29T07:03:44;100903.72;;;22.34;81.23
44872;BME280;30602;51.060;17.226;2023-07-29T07:07:35;100883.95;;;22.43;81.26
44872;BME280;30602;51.060;17.226;2023-07-29T07:11:51;100896.41;;;22.57;80.47
44872;BME280;30602;51.060;17.226;2023-07-29T07:15:44;100903.02;;;23.00;81.58
44872;BME280;30602;51.060;17.226;2023-07-29T07:19:22;100898.27;;;23.05;79.66
44872;BME280;30602;51.060;17.226;2023-07-29T07:23:20;100892.01;;;23.23;79.24
44872;BME280;30602;51.060;17.226;2023-07-29T07:26:42;100890.38;;;23.17;75.92
44872;BME280;30602;51.060;17.226;2023-07-29T07:30:48;100894.72;;;23.18;78.06
44872;BME280;30602;51.060;17.226;2023-07-29T07:34:38;100898.13;;;23.24;78.07
44872;BME280;30602;51.060;17.226;2023-07-29T07:38:19;100893.34;;;23.33;77.90
44872;BME280;30602;51.060;17.226;2023-07-29T07:41:50;100895.57;;;23.44;76.64
44872;BME280;30602;51.060;17.226;2023-07-29T07:45:34;100896.14;;;23.61;76.72
44872;BME280;30602;51.060;17.226;2023-07-29T07:49:50;100892.08;;;23.60;75.84
44872;BME280;30602;51.060;17.226;2023-07-29T07:54:12;100884.48;;;23.66;74.08
44872;BME280;30602;51.060;17.226;2023-07-29T07:58:18;100877.05;;;23.85;74.30
44872;BME280;30602;51.060;17.226;2023-07-29T08:02:31;100874.18;;;23.88;76.99
44872;BME280;30602;51.060;17.226;2023-07-29T08:06:42;100876.77;;;24.19;74.30
44872;BME280;30602;51.060;17.226;2023-07-29T08:10:57;100879.23;;;24.35;74.79
44872;BME280;30602;51.060;17.226;2023-07-29T08:15:01;100878.56;;;24.44;71.33
44872;BME280;30602;51.060;17.226;2023-07-29T08:19:28;100875.55;;;24.16;73.53
44872;BME280;30602;51.060;17.226;2023-07-29T08:23:43;100872.64;;;24.34;72.57
44872;BME280;30602;51.060;17.226;2023-07-29T08:27:27;100861.66;;;24.69;71.48
44872;BME280;30602;51.060;17.226;2023-07-29T08:30:53;100856.76;;;24.70;68.82
44872;BME280;30602;51.060;17.226;2023-07-29T08:34:37;100851.28;;;24.93;70.77
44872;BME280;30602;51.060;17.226;2023-07-29T08:38:26;100845.16;;;24.87;71.21
44872;BME280;30602;51.060;17.226;2023-07-29T08:42:49;100838.90;;;25.15;71.50
44872;BME280;30602;51.060;17.226;2023-07-29T08:46:57;100840.64;;;25.43;69.13
44872;BME280;30602;51.060;17.226;2023-07-29T08:50:26;100834.08;;;25.40;68.16
44872;BME280;30602;51.060;17.226;2023-07-29T08:53:52;100832.30;;;25.20;68.74
44872;BME280;30602;51.060;17.226;2023-07-29T08:57:55;100830.48;;;25.26;68.71
44872;BME280;30602;51.060;17.226;2023-07-29T09:02:06;100826.86;;;25.03;69.41
44872;BME280;30602;51.060;17.226;2023-07-29T09:06:06;100817.84;;;25.08;69.62
44872;BME280;30602;51.060;17.226;2023-07-29T09:10:03;100820.84;;;25.12;69.74
44872;BME280;30602;51.060;17.226;2023-07-29T09:13:46;100821.87;;;25.03;69.13
44872;BME280;30602;51.060;17.226;2023-07-29T09:18:26;100815.29;;;25.07;68.50
44872;BME280;30602;51.060;17.226;2023-07-29T09:22:27;100813.38;;;25.23;67.67
44872;BME280;30602;51.060;17.226;2023-07-29T09:26:02;100811.95;;;25.28;68.06
44872;BME280;30602;51.060;17.226;2023-07-29T09:29:39;100814.53;;;25.11;68.52
44872;BME280;30602;51.060;17.226;2023-07-29T09:33:36;100814.98;;;24.98;69.67
44872;BME280;30602;51.060;17.226;2023-07-29T09:37:35;100813.55;;;25.10;70.18
44872;BME280;30602;51.060;17.226;2023-07-29T09:41:16;100810.14;;;25.00;67.98
44872;BME280;30602;51.060;17.226;2023-07-29T09:49:13;100806.77;;;24.94;70.09
44872;BME280;30602;51.060;17.226;2023-07-29T09:53:09;100805.25;;;25.17;69.04
44872;BME280;30602;51.060;17.226;2023-07-29T09:57:32;100806.85;;;24.99;67.34
44872;BME280;30602;51.060;17.226;2023-07-29T10:01:28;100802.08;;;25.27;65.93
44872;BME280;30602;51.060;17.226;2023-07-29T10:05:39;100792.53;;;25.56;64.25
44872;BME280;30602;51.060;17.226;2023-07-29T10:09:20;100790.30;;;25.65;64.97
44872;BME280;30602;51.060;17.226;2023-07-29T10:12:46;100785.82;;;26.00;64.23
44872;BME280;30602;51.060;17.226;2023-07-29T10:17:03;100783.95;;;26.37;64.54
44872;BME280;30602;51.060;17.226;2023-07-29T10:21:22;100786.37;;;26.61;61.03
44872;BME280;30602;51.060;17.226;2023-07-29T10:25:43;100779.57;;;26.66;62.72
44872;BME280;30602;51.060;17.226;2023-07-29T10:29:24;100778.03;;;26.84;60.97
44872;BME280;30602;51.060;17.226;2023-07-29T10:36:57;100775.21;;;26.85;60.29
44872;BME280;30602;51.060;17.226;2023-07-29T10:40:19;100767.49;;;27.00;59.67
44872;BME280;30602;51.060;17.226;2023-07-29T10:47:55;100764.26;;;26.66;58.21
44872;BME280;30602;51.060;17.226;2023-07-29T10:52:05;100759.16;;;26.64;59.76
44872;BME280;30602;51.060;17.226;2023-07-29T10:55:30;100744.54;;;27.05;62.17
44872;BME280;30602;51.060;17.226;2023-07-29T10:59:33;100742.90;;;27.04;56.90
44872;BME280;30602;51.060;17.226;2023-07-29T11:12:37;100716.87;;;27.73;56.44
44872;BME280;30602;51.060;17.226;2023-07-29T11:16:04;100707.52;;;27.86;57.68
44872;BME280;30602;51.060;17.226;2023-07-29T11:20:18;100708.21;;;27.84;56.01
44872;BME280;30602;51.060;17.226;2023-07-29T11:23:59;100711.10;;;27.82;55.82
44872;BME280;30602;51.060;17.226;2023-07-29T11:28:39;100706.90;;;27.94;54.42
44872;BME280;30602;51.060;17.226;2023-07-29T11:32:13;100700.16;;;27.86;54.62
44872;BME280;30602;51.060;17.226;2023-07-29T11:37:13;100696.45;;;28.03;56.11
44872;BME280;30602;51.060;17.226;2023-07-29T11:41:01;100696.14;;;28.16;54.26
44872;BME280;30602;51.060;17.226;2023-07-29T11:44:27;100694.91;;;28.04;53.80
44872;BME280;30602;51.060;17.226;2023-07-29T11:48:06;100685.45;;;27.81;52.93
44872;BME280;30602;51.060;17.226;2023-07-29T11:51:44;100675.65;;;27.88;54.62
44872;BME280;30602;51.060;17.226;2023-07-29T11:55:19;100677.34;;;27.99;56.10
44872;BME280;30602;51.060;17.226;2023-07-29T11:59:15;100673.75;;;28.16;53.02
44872;BME280;30602;51.060;17.226;2023-07-29T12:03:00;100678.83;;;28.02;52.48
44872;BME280;30602;51.060;17.226;2023-07-29T12:08:02;100677.80;;;27.64;53.78
44872;BME280;30602;51.060;17.226;2023-07-29T12:11:46;100685.46;;;27.25;54.33
44872;BME280;30602;51.060;17.226;2023-07-29T12:15:28;100688.63;;;27.01;54.04
44872;BME280;30602;51.060;17.226;2023-07-29T12:18:53;100688.55;;;26.84;55.88
44872;BME280;30602;51.060;17.226;2023-07-29T12:23:00;100683.66;;;26.82;57.18
44872;BME280;30602;51.060;17.226;2023-07-29T12:27:22;100678.81;;;27.16;56.02
44872;BME280;30602;51.060;17.226;2023-07-29T12:31:08;100679.47;;;27.06;53.71
44872;BME280;30602;51.060;17.226;2023-07-29T12:34:53;100674.52;;;27.12;51.11
44872;BME280;30602;51.060;17.226;2023-07-29T12:38:36;100660.23;;;27.43;53.05
44872;BME280;30602;51.060;17.226;2023-07-29T12:42:20;100646.98;;;27.48;53.06
44872;BME280;30602;51.060;17.226;2023-07-29T12:46:08;100639.34;;;27.78;52.94
44872;BME280;30602;51.060;17.226;2023-07-29T12:49:33;100639.29;;;28.08;51.52
44872;BME280;30602;51.060;17.226;2023-07-29T12:53:28;100632.59;;;28.11;51.23
44872;BME280;30602;51.060;17.226;2023-07-29T12:57:04;100624.45;;;28.19;51.81
44872;BME280;30602;51.060;17.226;2023-07-29T13:00:29;100632.38;;;28.33;53.19
44872;BME280;30602;51.060;17.226;2023-07-29T13:04:06;100631.20;;;28.33;50.01
44872;BME280;30602;51.060;17.226;2023-07-29T13:07:43;100620.84;;;28.15;49.49
44872;BME280;30602;51.060;17.226;2023-07-29T13:11:04;100625.35;;;27.95;51.42
44872;BME280;30602;51.060;17.226;2023-07-29T13:15:03;100631.20;;;27.88;50.75
44872;BME280;30602;51.060;17.226;2023-07-29T13:18:39;100631.57;;;27.74;51.99
44872;BME280;30602;51.060;17.226;2023-07-29T13:22:07;100630.80;;;27.55;50.96
44872;BME280;30602;51.060;17.226;2023-07-29T13:25:27;100630.80;;;27.38;51.85
44872;BME280;30602;51.060;17.226;2023-07-29T13:29:50;100626.00;;;27.24;53.07
44872;BME280;30602;51.060;17.226;2023-07-29T13:33:48;100622.38;;;27.52;53.10
44872;BME280;30602;51.060;17.226;2023-07-29T13:37:41;100621.34;;;27.46;55.16
44872;BME280;30602;51.060;17.226;2023-07-29T13:41:24;100618.62;;;27.51;52.47
44872;BME280;30602;51.060;17.226;2023-07-29T13:45:09;100617.84;;;27.49;52.43
44872;BME280;30602;51.060;17.226;2023-07-29T13:48:32;100619.41;;;27.48;50.39
44872;BME280;30602;51.060;17.226;2023-07-29T13:51:58;100617.39;;;27.43;52.30
44872;BME280;30602;51.060;17.226;2023-07-29T13:56:10;100618.40;;;27.42;51.14
44872;BME280;30602;51.060;17.226;2023-07-29T13:59:54;100613.94;;;27.64;52.56
44872;BME280;30602;51.060;17.226;2023-07-29T14:04:20;100604.75;;;27.82;50.31
44872;BME280;30602;51.060;17.226;2023-07-29T14:08:25;100599.14;;;27.90;51.89
44872;BME280;30602;51.060;17.226;2023-07-29T14:12:11;100588.38;;;28.15;49.81
44872;BME280;30602;51.060;17.226;2023-07-29T14:16:10;100576.67;;;28.32;49.18
44872;BME280;30602;51.060;17.226;2023-07-29T14:19:35;100579.89;;;28.31;50.92
44872;BME280;30602;51.060;17.226;2023-07-29T14:23:20;100575.65;;;27.95;50.22
44872;BME280;30602;51.060;17.226;2023-07-29T14:27:25;100579.50;;;27.56;50.86
44872;BME280;30602;51.060;17.226;2023-07-29T14:31:41;100572.60;;;27.28;52.68
44872;BME280;30602;51.060;17.226;2023-07-29T14:35:34;100560.48;;;27.16;53.79
44872;BME280;30602;51.060;17.226;2023-07-29T14:39:25;100554.31;;;27.07;52.87
44872;BME280;30602;51.060;17.226;2023-07-29T14:43:00;100546.41;;;26.89;53.76
44872;BME280;30602;51.060;17.226;2023-07-29T14:47:16;100547.10;;;26.74;56.14
44872;BME280;30602;51.060;17.226;2023-07-29T14:51:13;100542.98;;;26.69;56.71
44872;BME280;30602;51.060;17.226;2023-07-29T14:55:07;100543.76;;;26.52;56.19
44872;BME280;30602;51.060;17.226;2023-07-29T14:58:51;100544.01;;;26.42;57.04
44872;BME280;30602;51.060;17.226;2023-07-29T15:02:34;100542.65;;;26.37;57.11
44872;BME280;30602;51.060;17.226;2023-07-29T15:06:29;100542.55;;;26.23;58.03
44872;BME280;30602;51.060;17.226;2023-07-29T15:10:26;100544.25;;;26.19;55.58
44872;BME280;30602;51.060;17.226;2023-07-29T15:13:55;100540.82;;;26.02;57.36
44872;BME280;30602;51.060;17.226;2023-07-29T15:17:22;100540.34;;;25.98;58.86
44872;BME280;30602;51.060;17.226;2023-07-29T15:21:41;100538.80;;;25.93;59.13
44872;BME280;30602;51.060;17.226;2023-07-29T15:30:05;100550.30;;;26.02;56.33
44872;BME280;30602;51.060;17.226;2023-07-29T15:33:35;100551.32;;;25.95;58.30
44872;BME280;30602;51.060;17.226;2023-07-29T15:37:02;100553.34;;;25.83;57.34
44872;BME280;30602;51.060;17.226;2023-07-29T15:40:49;100550.43;;;25.85;58.89
44872;BME280;30602;51.060;17.226;2023-07-29T15:44:15;100553.08;;;25.81;57.87
44872;BME280;30602;51.060;17.226;2023-07-29T15:47:46;100555.55;;;25.87;58.73
44872;BME280;30602;51.060;17.226;2023-07-29T15:51:29;100558.13;;;25.81;59.28
44872;BME280;30602;51.060;17.226;2023-07-29T15:54:51;100560.41;;;25.81;58.38
44872;BME280;30602;51.060;17.226;2023-07-29T15:58:45;100559.31;;;25.74;57.26
44872;BME280;30602;51.060;17.226;2023-07-29T16:02:43;100561.81;;;25.58;59.16
44872;BME280;30602;51.060;17.226;2023-07-29T16:06:30;100561.31;;;25.58;58.06
44872;BME280;30602;51.060;17.226;2023-07-29T16:10:29;100560.52;;;25.50;58.42
44872;BME280;30602;51.060;17.226;2023-07-29T16:14:46;100566.86;;;25.54;58.43
44872;BME280;30602;51.060;17.226;2023-07-29T16:19:02;100568.52;;;25.47;59.05
44872;BME280;30602;51.060;17.226;2023-07-29T16:22:53;100576.20;;;25.41;59.87
44872;BME280;30602;51.060;17.226;2023-07-29T16:26:34;100570.63;;;25.31;60.41
44872;BME280;30602;51.060;17.226;2023-07-29T16:30:31;100566.48;;;25.36;60.39
44872;BME280;30602;51.060;17.226;2023-07-29T16:34:19;100567.75;;;25.42;61.64
44872;BME280;30602;51.060;17.226;2023-07-29T16:38:06;100570.36;;;25.46;62.23
44872;BME280;30602;51.060;17.226;2023-07-29T16:41:34;100574.74;;;25.40;60.07
44872;BME280;30602;51.060;17.226;2023-07-29T16:45:04;100578.59;;;25.27;61.13
44872;BME280;30602;51.060;17.226;2023-07-29T16:49:32;100577.46;;;25.06;59.23
44872;BME280;30602;51.060;17.226;2023-07-29T16:53:31;100578.20;;;24.93;58.95
44872;BME280;30602;51.060;17.226;2023-07-29T16:58:02;100573.36;;;24.84;60.83
44872;BME280;30602;51.060;17.226;2023-07-29T17:01:38;100573.10;;;24.78;61.07
44872;BME280;30602;51.060;17.226;2023-07-29T17:05:19;100567.89;;;24.73;60.93
44872;BME280;30602;51.060;17.226;2023-07-29T17:09:46;100560.59;;;24.71;61.48
44872;BME280;30602;51.060;17.226;2023-07-29T17:13:28;100561.48;;;24.59;62.56
44872;BME280;30602;51.060;17.226;2023-07-29T17:16:54;100558.30;;;24.53;61.56
44872;BME280;30602;51.060;17.226;2023-07-29T17:20:37;100561.41;;;24.42;59.56
44872;BME280;30602;51.060;17.226;2023-07-29T17:25:01;100553.66;;;24.29;58.43
44872;BME280;30602;51.060;17.226;2023-07-29T17:28:25;100560.74;;;24.26;59.48
44872;BME280;30602;51.060;17.226;2023-07-29T17:32:20;100573.31;;;24.05;60.53
44872;BME280;30602;51.060;17.226;2023-07-29T17:36:07;100577.52;;;23.91;60.73
44872;BME280;30602;51.060;17.226;2023-07-29T17:39:41;100581.64;;;23.75;61.58
44872;BME280;30602;51.060;17.226;2023-07-29T17:43:48;100587.26;;;23.68;62.85
44872;BME280;30602;51.060;17.226;2023-07-29T17:47:19;100590.34;;;23.73;62.50
44872;BME280;30602;51.060;17.226;2023-07-29T17:50:59;100587.09;;;23.69;63.22
44872;BME280;30602;51.060;17.226;2023-07-29T17:54:24;100579.98;;;23.64;62.97
44872;BME280;30602;51.060;17.226;2023-07-29T17:58:25;100599.30;;;23.64;63.50
44872;BME280;30602;51.060;17.226;2023-07-29T18:06:55;100608.55;;;23.56;64.61
44872;BME280;30602;51.060;17.226;2023-07-29T18:10:58;100617.38;;;23.49;65.52
44872;BME280;30602;51.060;17.226;2023-07-29T18:14:41;100619.55;;;23.30;66.71
44872;BME280;30602;51.060;17.226;2023-07-29T18:18:08;100629.69;;;23.19;68.00
44872;BME280;30602;51.060;17.226;2023-07-29T18:21:39;100636.64;;;23.00;67.63
44872;BME280;30602;51.060;17.226;2023-07-29T18:25:18;100644.38;;;22.89;68.15
44872;BME280;30602;51.060;17.226;2023-07-29T18:28:43;100648.35;;;22.78;68.70
44872;BME280;30602;51.060;17.226;2023-07-29T18:33:15;100650.63;;;22.60;69.19
44872;BME280;30602;51.060;17.226;2023-07-29T18:37:22;100657.46;;;22.47;69.75
44872;BME280;30602;51.060;17.226;2023-07-29T18:41:12;100651.11;;;22.30;70.11
44872;BME280;30602;51.060;17.226;2023-07-29T18:44:37;100653.14;;;22.21;70.88
44872;BME280;30602;51.060;17.226;2023-07-29T18:48:16;100648.77;;;22.05;70.87
44872;BME280;30602;51.060;17.226;2023-07-29T18:52:01;100649.17;;;21.97;71.51
44872;BME280;30602;51.060;17.226;2023-07-29T18:55:56;100646.31;;;21.80;71.96
44872;BME280;30602;51.060;17.226;2023-07-29T18:59:20;100657.49;;;21.69;72.68
44872;BME280;30602;51.060;17.226;2023-07-29T19:04:00;100663.44;;;21.57;73.32
44872;BME280;30602;51.060;17.226;2023-07-29T19:07:53;100672.83;;;21.47;73.79
44872;BME280;30602;51.060;17.226;2023-07-29T19:12:32;100662.27;;;21.33;74.77
44872;BME280;30602;51.060;17.226;2023-07-29T19:16:02;100668.84;;;21.20;75.42
44872;BME280;30602;51.060;17.226;2023-07-29T19:20:36;100676.49;;;21.14;76.13
44872;BME280;30602;51.060;17.226;2023-07-29T19:24:13;100678.79;;;21.04;76.28
44872;BME280;30602;51.060;17.226;2023-07-29T19:28:07;100689.67;;;21.04;75.89
44872;BME280;30602;51.060;17.226;2023-07-29T19:32:05;100688.44;;;21.05;76.33
44872;BME280;30602;51.060;17.226;2023-07-29T19:35:55;100679.19;;;21.08;75.95
44872;BME280;30602;51.060;17.226;2023-07-29T19:39:50;100700.23;;;21.17;76.32
44872;BME280;30602;51.060;17.226;2023-07-29T19:47:30;100708.63;;;21.17;76.46
44872;BME280;30602;51.060;17.226;2023-07-29T19:51:25;100717.90;;;21.14;76.98
44872;BME280;30602;51.060;17.226;2023-07-29T19:55:08;100725.04;;;21.18;77.19
44872;BME280;30602;51.060;17.226;2023-07-29T19:59:03;100725.02;;;21.16;77.93
44872;BME280;30602;51.060;17.226;2023-07-29T20:03:15;100752.70;;;21.05;77.18
44872;BME280;30602;51.060;17.226;2023-07-29T20:07:10;100752.46;;;21.04;77.13
44872;BME280;30602;51.060;17.226;2023-07-29T20:10:44;100746.33;;;21.01;78.94
44872;BME280;30602;51.060;17.226;2023-07-29T20:14:19;100739.26;;;21.01;81.04
44872;BME280;30602;51.060;17.226;2023-07-29T20:18:04;100726.98;;;20.88;83.27
44872;BME280;30602;51.060;17.226;2023-07-29T20:21:33;100722.87;;;20.75;84.74
44872;BME280;30602;51.060;17.226;2023-07-29T20:25:50;100728.88;;;20.66;83.76
44872;BME280;30602;51.060;17.226;2023-07-29T20:29:58;100725.69;;;20.69;85.29
44872;BME280;30602;51.060;17.226;2023-07-29T20:34:07;100746.05;;;20.65;85.37
44872;BME280;30602;51.060;17.226;2023-07-29T20:37:57;100756.61;;;20.62;85.70
44872;BME280;30602;51.060;17.226;2023-07-29T20:41:45;100779.99;;;20.66;85.00
44872;BME280;30602;51.060;17.226;2023-07-29T20:45:29;100817.49;;;20.80;84.22
44872;BME280;30602;51.060;17.226;2023-07-29T20:49:16;100786.17;;;20.56;88.85
44872;BME280;30602;51.060;17.226;2023-07-29T20:53:09;100787.43;;;20.29;92.98
44872;BME280;30602;51.060;17.226;2023-07-29T20:56:52;100773.00;;;19.89;93.27
44872;BME280;30602;51.060;17.226;2023-07-29T21:01:26;100767.28;;;19.67;95.13